Aérodrome :
LOGIN :

S'inscrire | Disclaimer

   EN    FR    IT 

 










Légende :    VFR   VFR Marginal   IFR   IFR Intensif   IFR Très Intensif
Visi : 
Plafond : 
>= 8 km
>= 3000ft
5 à 8 km
1000 à 3000 ft
1500m à 5 km
500 à 1000 ft
800 à 1500m
200 à 500 ft
< 800m
< 200 ft
Symboles :   Orages  Brouillard  Fortes neiges  Fortes précipitations  Vent > 20 kt
SIGMETs :   Divers  Orages  Givrage  Turbulence  Onde Orograph.  Cendres Volcan.






- Altitude de l'aérodrome : 296 ft
- Code IATA : GKE


ETNG - Geilenkirchen

DERNIER METAR :
  • 282250Z AUTO 22006KT 180V270 9999 -RA FEW025/// BKN034/// OVC260/// 15/13 Q1014

METARs EXPIRÉS :
  • 282150Z AUTO 22007KT 160V270 9999 -RA FEW013/// SCT019/// OVC034/// 15/13 Q1014
  • 282050Z AUTO 22006KT 160V270 9999 -RA FEW018/// SCT024/// OVC040/// 15/13 Q1015
  • 281950Z AUTO 21006KT 170V260 9999 -RA FEW022/// BKN028/// OVC190/// 15/13 Q1015
  • 281850Z AUTO 21007KT 160V260 9999 -RA SCT021/// BKN051/// OVC068/// 16/12 Q1015

TAF TAF ETNG
Valide du 28 à 15h jusqu'au 29 à 06h UTC


281400Z 2815/2906 22008KT 7000 -RA BKN025



MET'MAP, la Météo Aéronautique d'un coup d'oeil ! - Copyright ORBIFLY Décembre 2007 - Disclaimer

ORBIFLY MET'MAP TEAM :

Programmation & Développement : Alexandra Zaïnal
Sur une idée originale de : Baudouin d'Aumeries
Soutien technique & logistique : Manuel Goepfert
Assistance : Marc-Olivier Méhu




SOURCES & CREDITS :

   NOAA